createdAt,value
2022-08-31T00:01:42.891Z,2.23
2022-08-31T00:04:10.470Z,2.23
2022-08-31T00:06:38.193Z,1.83
2022-08-31T00:09:06.891Z,1.87
2022-08-31T00:11:34.428Z,2.17
2022-08-31T00:14:03.874Z,2.20
2022-08-31T00:16:33.525Z,1.60
2022-08-31T00:19:03.002Z,1.80
2022-08-31T00:21:30.624Z,1.40
2022-08-31T00:23:58.417Z,1.70
2022-08-31T00:26:25.925Z,1.50
2022-08-31T00:28:53.702Z,1.40
2022-08-31T00:31:21.285Z,2.00
2022-08-31T00:33:48.951Z,1.87
2022-08-31T00:36:16.464Z,1.30
2022-08-31T00:38:43.977Z,1.30
2022-08-31T00:41:12.071Z,1.27
2022-08-31T00:43:45.633Z,1.40
2022-08-31T00:46:14.493Z,1.53
2022-08-31T00:48:44.950Z,1.20
2022-08-31T00:51:13.091Z,1.30
2022-08-31T00:53:46.432Z,1.57
2022-08-31T00:56:18.186Z,1.40
2022-08-31T00:58:46.168Z,1.30
2022-08-31T01:01:22.692Z,1.40
2022-08-31T01:03:50.256Z,1.53
2022-08-31T01:06:18.689Z,1.77
2022-08-31T01:08:47.722Z,1.10
2022-08-31T01:11:15.876Z,1.30
2022-08-31T01:13:43.437Z,1.10
2022-08-31T01:16:17.340Z,1.17
2022-08-31T01:18:45.131Z,1.10
2022-08-31T01:21:25.580Z,1.53
2022-08-31T01:23:55.355Z,1.67
2022-08-31T01:26:24.422Z,1.40
2022-08-31T01:28:53.615Z,1.40
2022-08-31T01:31:24.255Z,1.60
2022-08-31T01:33:51.983Z,1.00
2022-08-31T01:36:20.037Z,1.47
2022-08-31T01:38:53.055Z,1.30
2022-08-31T01:41:21.073Z,1.70
2022-08-31T01:43:48.767Z,1.03
2022-08-31T01:46:16.748Z,1.30
2022-08-31T01:48:45.005Z,1.20
2022-08-31T01:51:13.547Z,1.23
2022-08-31T01:53:45.687Z,1.00
2022-08-31T01:56:21.644Z,1.10
2022-08-31T01:58:49.488Z,1.63
2022-08-31T02:01:32.975Z,1.27
2022-08-31T02:04:02.245Z,1.53
2022-08-31T02:06:29.733Z,1.20
2022-08-31T02:08:57.305Z,1.40
2022-08-31T02:11:24.774Z,1.80
2022-08-31T02:13:52.375Z,1.10
2022-08-31T02:16:19.985Z,1.17
2022-08-31T02:18:47.570Z,1.23
2022-08-31T02:21:15.034Z,1.30
2022-08-31T02:23:42.892Z,1.23
2022-08-31T02:26:10.869Z,1.00
2022-08-31T02:28:38.504Z,1.20
2022-08-31T02:31:06.170Z,1.30
2022-08-31T02:33:33.796Z,1.13
2022-08-31T02:36:01.275Z,1.43
2022-08-31T02:38:28.776Z,1.10
2022-08-31T02:40:56.259Z,0.93
2022-08-31T02:43:24.680Z,1.10
2022-08-31T02:45:53.578Z,1.00
2022-08-31T02:48:21.963Z,1.30
2022-08-31T02:50:50.787Z,1.00
2022-08-31T02:53:19.750Z,1.27
2022-08-31T02:55:47.678Z,1.07
2022-08-31T02:58:15.507Z,0.90
2022-08-31T03:00:47.076Z,1.00
2022-08-31T03:03:15.157Z,1.30
2022-08-31T03:05:42.883Z,1.47
2022-08-31T03:08:10.397Z,1.40
2022-08-31T03:10:37.941Z,1.60
2022-08-31T03:13:05.498Z,1.47
2022-08-31T03:15:33.070Z,1.03
2022-08-31T03:18:00.564Z,1.90
2022-08-31T03:20:34.585Z,1.30
2022-08-31T03:23:03.109Z,0.97
2022-08-31T03:25:32.123Z,1.20
2022-08-31T03:27:59.585Z,1.50
2022-08-31T03:30:29.976Z,1.10
2022-08-31T03:33:02.535Z,1.30
2022-08-31T03:35:30.593Z,1.13
2022-08-31T03:37:58.281Z,1.40
2022-08-31T03:40:25.894Z,0.90
2022-08-31T03:42:53.424Z,0.97
2022-08-31T03:45:21.008Z,1.53
2022-08-31T03:47:48.524Z,1.43
2022-08-31T03:50:16.271Z,1.13
2022-08-31T03:52:43.887Z,1.43
2022-08-31T03:55:12.184Z,1.10
2022-08-31T03:57:39.907Z,1.37
2022-08-31T04:00:08.250Z,1.20
2022-08-31T04:02:38.070Z,1.10
2022-08-31T04:05:06.247Z,1.40
2022-08-31T04:07:42.600Z,1.50
2022-08-31T04:10:11.942Z,1.37
2022-08-31T04:12:39.528Z,2.20
2022-08-31T04:15:08.175Z,1.70
2022-08-31T04:17:35.638Z,1.63
2022-08-31T04:20:03.277Z,1.57
2022-08-31T04:22:30.835Z,1.40
2022-08-31T04:24:58.456Z,1.37
2022-08-31T04:27:26.045Z,1.30
2022-08-31T04:29:53.525Z,1.10
2022-08-31T04:32:21.007Z,1.30
2022-08-31T04:34:48.574Z,1.27
2022-08-31T04:37:24.003Z,1.27
2022-08-31T04:39:52.440Z,1.13
2022-08-31T04:42:20.018Z,1.20
2022-08-31T04:44:47.529Z,1.50
2022-08-31T04:47:18.260Z,1.43
2022-08-31T04:49:45.767Z,1.50
2022-08-31T04:52:13.250Z,1.37
2022-08-31T04:54:40.759Z,1.20
2022-08-31T04:57:08.230Z,1.53
2022-08-31T04:59:35.715Z,1.03
2022-08-31T05:02:03.248Z,1.30
2022-08-31T05:04:30.779Z,1.67
2022-08-31T05:06:58.295Z,1.50
2022-08-31T05:09:25.809Z,1.67
2022-08-31T05:11:56.051Z,1.60
2022-08-31T05:14:24.024Z,1.43
2022-08-31T05:16:52.123Z,1.63
2022-08-31T05:19:20.235Z,2.13
2022-08-31T05:21:47.820Z,1.80
2022-08-31T05:24:19.760Z,1.83
2022-08-31T05:26:48.616Z,1.70
2022-08-31T05:29:17.005Z,2.00
2022-08-31T05:31:49.109Z,1.80
2022-08-31T05:34:19.602Z,1.93
2022-08-31T05:36:50.240Z,1.77
2022-08-31T05:39:17.731Z,1.63
2022-08-31T05:41:46.070Z,1.73
2022-08-31T05:44:13.659Z,1.47
2022-08-31T05:46:41.219Z,1.90
2022-08-31T05:49:10.845Z,1.40
2022-08-31T05:51:39.651Z,1.20
2022-08-31T05:54:07.942Z,2.17
2022-08-31T05:56:35.498Z,1.53
2022-08-31T05:59:03.191Z,1.70
2022-08-31T06:01:31.977Z,1.60
2022-08-31T06:04:00.736Z,1.30
2022-08-31T06:06:30.852Z,1.50
2022-08-31T06:08:59.036Z,1.50
2022-08-31T06:11:31.634Z,1.70
2022-08-31T06:13:59.873Z,1.43
2022-08-31T06:16:27.706Z,1.50
2022-08-31T06:18:55.798Z,1.43
2022-08-31T06:21:25.268Z,1.60
2022-08-31T06:23:53.941Z,1.33
2022-08-31T06:26:22.975Z,2.27
2022-08-31T06:28:52.242Z,1.93
2022-08-31T06:31:19.764Z,2.07
2022-08-31T06:33:47.394Z,1.63
2022-08-31T06:36:16.494Z,1.97
2022-08-31T06:38:45.275Z,1.70
2022-08-31T06:41:23.306Z,1.80
2022-08-31T06:43:51.211Z,2.17
2022-08-31T06:46:19.916Z,1.60
2022-08-31T06:48:47.565Z,1.60
2022-08-31T06:51:15.071Z,1.80
2022-08-31T06:53:42.642Z,1.37
2022-08-31T06:56:20.400Z,1.90
2022-08-31T06:58:53.492Z,1.30
2022-08-31T07:01:35.391Z,1.23
2022-08-31T07:04:05.621Z,1.70
2022-08-31T07:06:35.485Z,1.80
2022-08-31T07:09:04.217Z,1.50
2022-08-31T07:11:33.107Z,1.10
2022-08-31T07:14:01.180Z,1.80
2022-08-31T07:16:29.375Z,2.93
2022-08-31T07:18:58.882Z,1.50
2022-08-31T07:21:30.796Z,2.07
2022-08-31T07:23:59.884Z,1.70
2022-08-31T07:26:31.498Z,1.70
2022-08-31T07:29:01.015Z,1.83
2022-08-31T07:31:30.226Z,2.63
2022-08-31T07:33:57.809Z,2.07
2022-08-31T07:36:26.612Z,1.90
2022-08-31T07:38:54.096Z,1.60
2022-08-31T07:41:22.857Z,1.93
2022-08-31T07:43:50.500Z,1.50
2022-08-31T07:46:18.044Z,1.67
2022-08-31T07:48:45.675Z,1.57
2022-08-31T07:51:15.256Z,1.73
2022-08-31T07:53:42.895Z,1.70
2022-08-31T07:56:10.387Z,1.70
2022-08-31T07:58:37.893Z,1.70
2022-08-31T08:01:05.418Z,1.47
2022-08-31T08:03:32.904Z,1.83
2022-08-31T08:06:01.539Z,1.80
2022-08-31T08:08:29.166Z,1.93
2022-08-31T08:10:59.436Z,1.70
2022-08-31T08:13:26.927Z,1.90
2022-08-31T08:15:54.763Z,1.80
2022-08-31T08:18:22.355Z,1.60
2022-08-31T08:20:49.914Z,1.53
2022-08-31T08:23:26.910Z,1.63
2022-08-31T08:25:56.725Z,1.97
2022-08-31T08:28:42.361Z,1.60
2022-08-31T08:31:17.637Z,1.90
2022-08-31T08:33:46.009Z,1.97
2022-08-31T08:36:13.507Z,2.13
2022-08-31T08:38:41.546Z,1.50
2022-08-31T08:41:12.527Z,1.90
2022-08-31T08:43:43.856Z,1.90
2022-08-31T08:46:33.479Z,3.30
2022-08-31T08:49:01.431Z,2.20
2022-08-31T08:51:36.430Z,2.30
2022-08-31T08:54:10.825Z,2.87
2022-08-31T08:56:38.356Z,2.30
2022-08-31T08:59:10.951Z,2.03
2022-08-31T09:01:39.910Z,2.40
2022-08-31T09:04:07.575Z,2.73
2022-08-31T09:06:54.410Z,2.93
2022-08-31T09:09:28.072Z,2.53
2022-08-31T09:12:01.697Z,2.37
2022-08-31T09:28:38.346Z,2.40
2022-08-31T09:31:06.014Z,1.73
2022-08-31T09:33:34.681Z,2.00
2022-08-31T09:36:18.958Z,1.77
2022-08-31T09:38:47.102Z,2.57
2022-08-31T09:41:26.760Z,1.80
2022-08-31T09:43:55.771Z,2.10
2022-08-31T09:46:27.334Z,2.47
2022-08-31T09:48:54.890Z,2.03
2022-08-31T09:51:34.650Z,2.20
2022-08-31T09:54:08.345Z,2.47
2022-08-31T09:56:48.780Z,2.30
2022-08-31T09:59:29.347Z,2.60
2022-08-31T10:01:57.201Z,2.70
2022-08-31T10:04:27.029Z,2.20
2022-08-31T10:07:15.493Z,1.83
2022-08-31T10:09:45.198Z,1.90
2022-08-31T10:12:20.935Z,1.73
2022-08-31T10:14:51.739Z,2.20
2022-08-31T10:17:47.328Z,2.23
2022-08-31T10:20:18.775Z,2.10
2022-08-31T10:22:54.582Z,2.10
2022-08-31T10:25:38.074Z,1.90
2022-08-31T10:28:11.395Z,1.80
2022-08-31T10:30:51.387Z,2.40
2022-08-31T10:33:22.133Z,2.40
2022-08-31T10:35:54.700Z,2.27
2022-08-31T10:38:27.978Z,2.33
2022-08-31T10:40:55.505Z,2.93
2022-08-31T10:43:27.935Z,1.80
2022-08-31T10:45:59.653Z,1.50
2022-08-31T10:48:27.970Z,1.57
2022-08-31T10:50:59.670Z,2.10
2022-08-31T10:53:32.945Z,1.70
2022-08-31T10:56:20.582Z,2.00
2022-08-31T10:58:54.430Z,1.80
2022-08-31T11:01:29.455Z,1.90
2022-08-31T11:04:29.509Z,2.17
2022-08-31T11:07:02.060Z,1.97
2022-08-31T11:09:49.826Z,2.40
2022-08-31T11:12:20.276Z,2.33
2022-08-31T11:14:47.777Z,1.60
2022-08-31T11:17:24.039Z,1.97
2022-08-31T11:20:03.861Z,2.77
2022-08-31T11:22:50.210Z,2.67
2022-08-31T11:25:36.132Z,1.60
2022-08-31T11:28:06.131Z,1.80
2022-08-31T11:30:39.890Z,2.43
2022-08-31T11:33:15.725Z,2.37
2022-08-31T11:35:49.363Z,2.40
2022-08-31T11:38:35.539Z,2.50
2022-08-31T11:41:03.351Z,1.90
2022-08-31T11:43:33.577Z,2.13
2022-08-31T11:46:24.148Z,2.30
2022-08-31T11:48:54.712Z,2.37
2022-08-31T11:51:31.729Z,3.07
2022-08-31T11:54:12.022Z,2.07
2022-08-31T11:56:40.684Z,1.87
2022-08-31T11:59:28.411Z,2.80
2022-08-31T12:01:56.412Z,2.07
2022-08-31T12:04:33.341Z,2.40
2022-08-31T12:07:02.916Z,2.20
2022-08-31T12:09:42.766Z,2.47
2022-08-31T12:12:10.296Z,2.30
2022-08-31T12:14:46.081Z,2.03
2022-08-31T12:17:25.655Z,2.00
2022-08-31T12:20:08.929Z,2.83
2022-08-31T12:22:36.522Z,2.13
2022-08-31T12:25:22.601Z,2.47
2022-08-31T12:27:50.137Z,2.57
2022-08-31T12:30:20.342Z,2.60
2022-08-31T12:32:53.209Z,2.37
2022-08-31T12:35:23.263Z,2.10
2022-08-31T12:38:01.099Z,2.30
2022-08-31T12:40:31.767Z,2.60
2022-08-31T12:43:09.871Z,2.60
2022-08-31T12:45:40.541Z,2.07
2022-08-31T12:48:30.854Z,2.20
2022-08-31T12:51:07.657Z,1.70
2022-08-31T12:53:47.274Z,2.40
2022-08-31T12:56:14.710Z,2.27
2022-08-31T12:58:42.172Z,1.80
2022-08-31T13:01:12.183Z,2.33
2022-08-31T13:03:42.240Z,2.37
2022-08-31T13:06:16.944Z,2.27
2022-08-31T13:08:45.739Z,2.03
2022-08-31T13:11:39.913Z,2.23
2022-08-31T13:14:09.263Z,1.77
2022-08-31T13:16:39.874Z,2.10
2022-08-31T13:19:08.151Z,2.13
2022-08-31T13:21:35.855Z,1.67
2022-08-31T13:24:07.627Z,3.13
2022-08-31T13:26:36.053Z,2.60
2022-08-31T13:29:05.830Z,2.27
2022-08-31T13:31:35.654Z,2.30
2022-08-31T13:34:04.635Z,2.30
2022-08-31T13:36:53.046Z,2.13
2022-08-31T13:39:29.029Z,2.87
2022-08-31T13:41:58.976Z,2.57
2022-08-31T13:44:26.954Z,2.33
2022-08-31T13:46:58.562Z,2.10
2022-08-31T13:49:30.625Z,1.90
2022-08-31T13:51:58.388Z,2.20
2022-08-31T13:54:30.625Z,2.23
2022-08-31T13:57:09.408Z,2.83
2022-08-31T13:59:38.815Z,2.27
2022-08-31T14:02:15.554Z,2.10
2022-08-31T14:04:43.184Z,2.70
2022-08-31T14:07:21.105Z,2.43
2022-08-31T14:09:56.583Z,2.67
2022-08-31T14:12:30.035Z,2.10
2022-08-31T14:14:57.623Z,2.00
2022-08-31T14:17:25.806Z,2.37
2022-08-31T14:19:53.325Z,2.17
2022-08-31T14:22:31.081Z,2.47
2022-08-31T14:24:58.638Z,2.70
2022-08-31T14:27:26.107Z,1.90
2022-08-31T14:29:53.591Z,1.90
2022-08-31T14:32:21.560Z,2.40
2022-08-31T14:34:49.139Z,1.93
2022-08-31T14:37:18.745Z,1.87
2022-08-31T14:39:47.614Z,2.23
2022-08-31T14:42:20.794Z,2.10
2022-08-31T14:44:48.339Z,2.27
2022-08-31T14:47:15.847Z,2.40
2022-08-31T14:49:43.398Z,2.00
2022-08-31T14:52:10.945Z,2.10
2022-08-31T14:54:38.479Z,2.27
2022-08-31T14:57:12.504Z,2.13
2022-08-31T14:59:41.677Z,2.33
2022-08-31T15:02:09.609Z,2.00
2022-08-31T15:04:42.215Z,2.00
2022-08-31T15:07:12.858Z,1.67
2022-08-31T15:09:40.345Z,1.73
2022-08-31T15:12:08.161Z,2.67
2022-08-31T15:14:35.627Z,1.50
2022-08-31T15:17:03.914Z,1.93
2022-08-31T15:19:31.421Z,2.33
2022-08-31T15:22:03.214Z,2.30
2022-08-31T15:24:30.968Z,1.70
2022-08-31T15:26:58.487Z,2.13
2022-08-31T15:29:26.301Z,2.40
2022-08-31T15:31:54.032Z,1.80
2022-08-31T15:34:31.391Z,1.90
2022-08-31T15:37:00.233Z,2.17
2022-08-31T15:39:28.674Z,2.13
2022-08-31T15:41:56.190Z,1.80
2022-08-31T15:44:23.671Z,2.20
2022-08-31T15:46:51.652Z,2.70
2022-08-31T15:49:19.135Z,2.37
2022-08-31T15:51:46.650Z,1.37
2022-08-31T15:54:22.349Z,2.10
2022-08-31T15:56:51.425Z,1.70
2022-08-31T15:59:18.957Z,2.50
2022-08-31T16:01:46.531Z,1.90
2022-08-31T16:04:14.046Z,2.00
2022-08-31T16:06:41.585Z,1.90
2022-08-31T16:09:09.081Z,1.93
2022-08-31T16:11:37.311Z,2.07
2022-08-31T16:14:05.287Z,2.00
2022-08-31T16:16:35.187Z,2.10
2022-08-31T16:19:03.151Z,1.63
2022-08-31T16:21:31.605Z,1.90
2022-08-31T16:24:00.479Z,1.83
2022-08-31T16:26:29.342Z,1.90
2022-08-31T16:28:57.685Z,2.00
2022-08-31T16:31:26.162Z,1.83
2022-08-31T16:33:53.786Z,1.73
2022-08-31T16:36:22.322Z,2.57
2022-08-31T16:38:50.118Z,2.00
2022-08-31T16:41:18.307Z,1.60
2022-08-31T16:43:58.246Z,2.20
2022-08-31T16:46:41.688Z,1.73
2022-08-31T16:49:10.570Z,1.63
2022-08-31T16:51:39.860Z,2.67
2022-08-31T16:54:07.990Z,1.73
2022-08-31T16:56:50.516Z,1.80
2022-08-31T16:59:25.909Z,1.60
2022-08-31T17:01:58.586Z,1.53
2022-08-31T17:04:51.088Z,1.70
2022-08-31T17:07:17.634Z,2.50
2022-08-31T17:09:51.808Z,1.63
2022-08-31T17:12:23.974Z,1.70
2022-08-31T17:14:51.571Z,1.77
2022-08-31T17:17:20.881Z,1.63
2022-08-31T17:19:48.468Z,1.80
2022-08-31T17:22:23.508Z,1.60
2022-08-31T17:24:53.475Z,1.67
2022-08-31T17:27:21.651Z,2.07
2022-08-31T17:29:50.011Z,2.20
2022-08-31T17:32:19.340Z,1.67
2022-08-31T17:34:47.192Z,1.33
2022-08-31T17:37:15.385Z,1.17
2022-08-31T17:39:44.174Z,1.53
2022-08-31T17:42:12.054Z,1.80
2022-08-31T17:44:39.605Z,1.20
2022-08-31T17:47:08.533Z,1.47
2022-08-31T17:49:37.714Z,1.23
2022-08-31T17:52:06.169Z,1.57
2022-08-31T17:54:33.713Z,1.20
2022-08-31T17:57:02.296Z,1.37
2022-08-31T17:59:31.331Z,1.30
2022-08-31T18:02:01.248Z,1.07
2022-08-31T18:04:29.427Z,1.90
2022-08-31T18:06:57.416Z,1.20
2022-08-31T18:09:26.272Z,1.33
2022-08-31T18:11:54.149Z,1.23
2022-08-31T18:14:26.769Z,1.20
2022-08-31T18:16:55.322Z,1.10
2022-08-31T18:19:27.510Z,1.00
2022-08-31T18:21:56.649Z,1.80
2022-08-31T18:24:24.201Z,1.20
2022-08-31T18:26:52.324Z,1.17
2022-08-31T18:29:24.458Z,0.93
2022-08-31T18:31:52.735Z,1.90
2022-08-31T18:34:22.171Z,1.20
2022-08-31T18:36:50.890Z,1.17
2022-08-31T18:39:34.738Z,1.30
2022-08-31T18:42:07.891Z,1.30
2022-08-31T18:44:36.265Z,1.33
2022-08-31T18:47:05.945Z,1.30
2022-08-31T18:49:33.625Z,1.57
2022-08-31T18:52:01.291Z,1.33
2022-08-31T18:54:28.776Z,1.17
2022-08-31T18:56:56.402Z,1.20
2022-08-31T18:59:23.949Z,1.07
2022-08-31T19:01:51.662Z,1.23
2022-08-31T19:04:21.942Z,1.07
2022-08-31T19:06:49.974Z,1.20
2022-08-31T19:09:17.510Z,1.20
2022-08-31T19:11:45.131Z,0.90
2022-08-31T19:14:13.027Z,1.30
2022-08-31T19:16:41.519Z,1.40
2022-08-31T19:19:09.743Z,1.00
2022-08-31T19:21:37.930Z,1.10
2022-08-31T19:24:07.374Z,1.20
2022-08-31T19:26:36.817Z,0.70
2022-08-31T19:29:05.886Z,0.93
2022-08-31T19:31:33.488Z,1.13
2022-08-31T19:34:00.997Z,1.37
2022-08-31T19:36:28.524Z,1.40
2022-08-31T19:38:56.052Z,1.00
2022-08-31T19:41:24.709Z,1.30
2022-08-31T19:44:01.982Z,1.17
2022-08-31T19:46:32.012Z,1.00
2022-08-31T19:48:59.606Z,0.90
2022-08-31T19:51:28.152Z,1.00
2022-08-31T19:53:55.815Z,1.17
2022-08-31T19:56:24.843Z,0.80
2022-08-31T19:58:53.772Z,1.10
2022-08-31T20:01:22.999Z,1.10
2022-08-31T20:03:50.691Z,0.90
2022-08-31T20:06:19.342Z,0.97
2022-08-31T20:08:47.424Z,1.10
2022-08-31T20:11:20.855Z,0.80
2022-08-31T20:13:49.493Z,0.77
2022-08-31T20:16:17.240Z,0.87
2022-08-31T20:18:44.899Z,0.87
2022-08-31T20:21:14.090Z,1.10
2022-08-31T20:23:42.079Z,0.80
2022-08-31T20:26:09.569Z,1.03
2022-08-31T20:28:37.836Z,1.20
2022-08-31T20:31:07.972Z,1.10
2022-08-31T20:33:35.861Z,1.00
2022-08-31T20:36:04.265Z,0.90
2022-08-31T20:38:31.823Z,1.67
2022-08-31T20:41:03.077Z,1.00
2022-08-31T20:43:32.483Z,1.03
2022-08-31T20:46:04.910Z,1.50
2022-08-31T20:48:32.536Z,1.40
2022-08-31T20:51:09.135Z,1.10
2022-08-31T20:53:42.785Z,1.10
2022-08-31T20:56:14.897Z,1.13
2022-08-31T20:58:46.124Z,0.83
2022-08-31T21:01:18.612Z,1.37
2022-08-31T21:03:46.130Z,0.90
2022-08-31T21:06:13.647Z,1.23
2022-08-31T21:08:41.239Z,1.13
2022-08-31T21:11:15.526Z,1.00
2022-08-31T21:13:43.494Z,1.00
2022-08-31T21:16:11.068Z,0.90
2022-08-31T21:18:38.763Z,0.97
2022-08-31T21:21:07.494Z,1.00
2022-08-31T21:23:38.197Z,1.00
2022-08-31T21:26:06.364Z,1.10
2022-08-31T21:28:33.866Z,0.90
2022-08-31T21:31:09.061Z,1.10
2022-08-31T21:33:43.991Z,0.87
2022-08-31T21:36:13.505Z,1.10
2022-08-31T21:38:41.637Z,1.00
2022-08-31T21:41:09.447Z,0.80
2022-08-31T21:43:37.247Z,0.93
2022-08-31T21:46:12.033Z,1.03
2022-08-31T21:48:40.812Z,0.90
2022-08-31T21:51:11.074Z,1.00
2022-08-31T21:53:38.682Z,1.10
2022-08-31T21:56:06.172Z,1.10
2022-08-31T21:58:33.770Z,0.90
2022-08-31T22:01:01.494Z,1.33
2022-08-31T22:03:29.189Z,0.90
2022-08-31T22:05:56.650Z,1.63
2022-08-31T22:08:24.242Z,0.90
2022-08-31T22:10:51.694Z,1.20
2022-08-31T22:13:19.313Z,0.83
2022-08-31T22:15:47.004Z,1.00
2022-08-31T22:21:02.042Z,0.90
2022-08-31T22:23:29.497Z,1.10
2022-08-31T22:25:56.955Z,0.90
2022-08-31T22:28:24.431Z,1.17
2022-08-31T22:30:51.944Z,1.00
2022-08-31T22:33:19.481Z,1.10
2022-08-31T22:35:50.049Z,0.87
2022-08-31T22:38:17.668Z,1.00
2022-08-31T22:40:45.534Z,1.00
2022-08-31T22:43:13.109Z,1.00
2022-08-31T22:45:48.162Z,0.80
2022-08-31T22:48:15.993Z,0.70
2022-08-31T22:50:43.485Z,0.80
2022-08-31T22:53:11.032Z,1.23
2022-08-31T22:55:39.711Z,0.87
2022-08-31T22:58:07.177Z,1.00
2022-08-31T23:00:34.824Z,1.00
2022-08-31T23:03:02.483Z,1.07
2022-08-31T23:05:29.954Z,0.90
2022-08-31T23:07:57.521Z,0.80
2022-08-31T23:10:25.033Z,1.20
2022-08-31T23:12:52.501Z,0.90
2022-08-31T23:15:23.326Z,1.47
2022-08-31T23:17:51.827Z,1.23
2022-08-31T23:20:20.586Z,0.80
2022-08-31T23:22:48.274Z,0.80
2022-08-31T23:25:20.698Z,1.13
2022-08-31T23:27:49.037Z,1.43
2022-08-31T23:30:18.878Z,1.20
2022-08-31T23:32:46.677Z,1.03
2022-08-31T23:35:14.815Z,1.00
2022-08-31T23:37:42.489Z,1.13
2022-08-31T23:40:10.408Z,1.00
2022-08-31T23:42:38.108Z,0.80
2022-08-31T23:45:05.818Z,1.23
2022-08-31T23:47:33.367Z,2.07
2022-08-31T23:50:00.806Z,1.10
2022-08-31T23:52:30.203Z,1.10
2022-08-31T23:54:58.572Z,1.27
2022-08-31T23:57:32.369Z,1.27
